INDIA METEOROLOGICAL DEPARTMENT, R.M.C. NEW DELHI
Dated:20 - 11 - 2017
METARS OF ALTERNATE AIRPORTS
Delhi      
VIDP 200730Z 31008KT 2800 HZ NSC 22/04 Q1018 NOSIG=
Amritsar   
VIAR 200730Z 26007KT 220V290 6000 NSC 22/12 Q1018 NOSIG=
Lucknow    
VILK 200730Z 31005KT 2500 HZ NSC 27/11 Q1015 NOSIG=
Jaipur     
VIJP 200730Z 33005KT 3000 HZ NSC 24/M01 Q1019 NOSIG=
Ahmedabad  
VAAH 200730Z 01007KT 4000 FU NSC 29/13 Q1015 NOSIG=
Udaipur    
VAUD 200700Z 07005KT 4000 HZ FEW030 22/07 Q1019 NOSIG=
Mumbai     
VABB 200730Z 05004KT 2500 FU SCT020 SCT100 31/19 Q1012 BECMG 3000 FU=